Time;durP1;ratioP1;P1;durP2;ratioP2;P2;SDS_P1;SDS_P2;PMS_P1;PMS_P2;Temp;Humidity;BMP_temperature;BMP_pressure;BME280_temperature;BME280_humidity;BME280_pressure;Samples;Min_cycle;Max_cycle;Signal;HPM_P1;HPM_P2
2022/11/12 00:00:45;;;;;;;0.40;0.40;;;16.80;98.60;;;;;;5072677;28;20262;-66
2022/11/12 00:03:34;;;;;;;0.40;0.40;;;16.80;98.50;;;;;;5074013;28;20286;-66
2022/11/12 00:06:22;;;;;;;0.40;0.40;;;16.80;98.50;;;;;;5072524;28;20351;-66
2022/11/12 00:09:10;;;;;;;0.40;0.40;;;16.80;98.40;;;;;;5073086;28;20720;-66
2022/11/12 00:11:59;;;;;;;0.40;0.40;;;16.90;98.50;;;;;;5072395;28;20197;-66
2022/11/12 00:14:47;;;;;;;0.50;0.50;;;16.80;98.40;;;;;;5072457;28;20362;-66
2022/11/12 00:17:35;;;;;;;0.40;0.40;;;16.80;98.20;;;;;;5071889;28;20330;-66
2022/11/12 00:20:24;;;;;;;0.50;0.50;;;16.80;98.30;;;;;;5072611;28;20225;-66
2022/11/12 00:23:12;;;;;;;0.50;0.50;;;16.80;98.40;;;;;;5072143;28;20676;-66
2022/11/12 00:26:01;;;;;;;1.20;1.20;;;16.70;98.50;;;;;;5073030;28;20319;-66
2022/11/12 00:28:49;;;;;;;0.40;0.40;;;16.80;98.40;;;;;;5072602;28;20240;-66
2022/11/12 00:31:38;;;;;;;0.40;0.40;;;16.70;98.50;;;;;;5072647;28;20701;-66
2022/11/12 00:34:26;;;;;;;0.40;0.40;;;16.70;98.30;;;;;;5072538;28;20246;-66
2022/11/12 00:37:15;;;;;;;0.60;0.60;;;16.70;98.20;;;;;;5072320;28;20287;-66
2022/11/12 00:40:04;;;;;;;0.40;0.40;;;16.70;98.70;;;;;;5072514;28;20224;-66
2022/11/12 00:42:53;;;;;;;0.40;0.40;;;16.70;98.40;;;;;;5072891;28;20285;-66
2022/11/12 00:45:42;;;;;;;0.40;0.40;;;16.60;98.20;;;;;;5072029;28;20220;-67
2022/11/12 00:48:30;;;;;;;0.40;0.40;;;16.70;98.60;;;;;;5071990;28;20196;-66
2022/11/12 00:51:18;;;;;;;0.40;0.40;;;16.70;98.20;;;;;;5071653;28;20189;-67
2022/11/12 00:54:08;;;;;;;0.70;0.70;;;16.70;98.10;;;;;;5072600;28;20200;-66
2022/11/12 00:56:56;;;;;;;0.40;0.40;;;16.70;98.40;;;;;;5065298;28;20304;-66
2022/11/12 00:59:44;;;;;;;0.40;0.40;;;16.70;98.20;;;;;;5053264;28;20719;-66
2022/11/12 01:02:32;;;;;;;0.75;0.75;;;16.70;98.30;;;;;;5071918;28;20265;-64
2022/11/12 01:05:29;;;;;;;0.40;0.40;;;16.70;98.20;;;;;;5074390;28;20216;-66
2022/11/12 01:08:17;;;;;;;0.40;0.40;;;16.60;98.10;;;;;;5075303;28;20237;-65
2022/11/12 01:11:09;;;;;;;0.40;0.40;;;16.60;98.30;;;;;;5073885;28;20207;-65
2022/11/12 01:14:00;;;;;;;0.40;0.40;;;16.60;98.00;;;;;;5073870;28;20201;-66
2022/11/12 01:16:48;;;;;;;0.40;0.40;;;16.60;98.00;;;;;;5054737;28;20216;-66
2022/11/12 01:19:36;;;;;;;0.40;0.40;;;16.60;98.10;;;;;;5054152;28;20202;-66
2022/11/12 01:22:24;;;;;;;0.40;0.40;;;16.60;98.30;;;;;;5053177;28;20205;-65
2022/11/12 01:25:12;;;;;;;0.40;0.40;;;16.60;98.00;;;;;;5053158;28;20226;-66
2022/11/12 01:28:02;;;;;;;0.40;0.40;;;16.60;98.00;;;;;;5054235;28;20641;-66
2022/11/12 01:30:50;;;;;;;0.40;0.40;;;16.60;98.00;;;;;;5052636;28;20198;-66
2022/11/12 01:33:38;;;;;;;0.40;0.40;;;16.60;97.90;;;;;;5052570;28;20208;-66
2022/11/12 01:36:28;;;;;;;0.40;0.40;;;16.60;98.00;;;;;;5044549;28;20288;-66
2022/11/12 01:39:16;;;;;;;0.40;0.40;;;16.60;98.00;;;;;;5052244;28;20697;-66
2022/11/12 01:42:04;;;;;;;0.40;0.40;;;16.50;97.90;;;;;;5053181;28;20197;-66
2022/11/12 01:44:53;;;;;;;0.40;0.40;;;16.60;98.10;;;;;;5052508;28;20225;-66
2022/11/12 01:47:44;;;;;;;0.40;0.40;;;16.50;97.90;;;;;;5052469;28;20198;-66
2022/11/12 01:50:34;;;;;;;0.40;0.40;;;16.60;98.00;;;;;;5051523;28;20197;-66
2022/11/12 01:53:26;;;;;;;0.60;0.60;;;16.50;97.80;;;;;;5051753;28;20284;-66
2022/11/12 01:56:15;;;;;;;0.40;0.40;;;16.50;98.00;;;;;;5052829;28;20300;-66
2022/11/12 01:59:10;;;;;;;0.40;0.40;;;16.50;98.10;;;;;;5071347;28;20762;-65
2022/11/12 02:01:59;;;;;;;0.40;0.40;;;16.50;97.70;;;;;;5071390;28;20220;-66
2022/11/12 02:04:49;;;;;;;0.40;0.40;;;16.40;97.60;;;;;;5070527;28;20220;-66
2022/11/12 02:07:39;;;;;;;0.40;0.40;;;16.50;98.00;;;;;;5071372;28;20280;-66
2022/11/12 02:10:27;;;;;;;0.40;0.40;;;16.50;97.90;;;;;;5070498;28;20283;-66
2022/11/12 02:16:21;;;;;;;0.88;0.88;;;16.50;97.90;;;;;;5073192;28;20221;-66
2022/11/12 02:19:12;;;;;;;0.47;0.47;;;16.40;97.90;;;;;;5072751;28;20199;-66
2022/11/12 02:22:01;;;;;;;0.40;0.40;;;16.40;98.00;;;;;;5071639;28;20295;-66
2022/11/12 02:24:49;;;;;;;0.40;0.40;;;16.50;97.80;;;;;;5070851;28;20226;-66
2022/11/12 02:27:38;;;;;;;0.40;0.40;;;16.40;97.80;;;;;;5072245;28;20200;-66
2022/11/12 02:30:32;;;;;;;0.40;0.40;;;16.50;97.80;;;;;;5071358;28;20695;-66
2022/11/12 02:33:20;;;;;;;0.40;0.40;;;16.40;97.90;;;;;;5071597;28;20642;-66
2022/11/12 02:36:09;;;;;;;0.40;0.40;;;16.40;97.60;;;;;;5070750;28;20228;-66
2022/11/12 02:38:58;;;;;;;17.42;13.70;;;16.40;98.00;;;;;;5071700;28;20242;-66
2022/11/12 02:41:46;;;;;;;0.40;0.40;;;16.40;97.50;;;;;;5066747;28;20226;-68
2022/11/12 02:44:34;;;;;;;0.40;0.40;;;16.40;97.40;;;;;;5058572;28;20300;-66
2022/11/12 02:47:22;;;;;;;0.40;0.40;;;16.40;97.60;;;;;;5044500;28;20335;-66
2022/11/12 02:50:11;;;;;;;0.40;0.40;;;16.40;97.70;;;;;;5052352;28;20913;-66
2022/11/12 02:52:59;;;;;;;1.55;1.50;;;16.40;97.70;;;;;;5051452;28;20314;-66
2022/11/12 02:55:48;;;;;;;0.40;0.40;;;16.30;97.60;;;;;;5051810;28;20219;-66
2022/11/12 02:58:36;;;;;;;0.90;0.90;;;16.40;97.70;;;;;;5031147;28;20261;-66
2022/11/12 03:01:24;;;;;;;0.40;0.40;;;16.40;97.70;;;;;;5032453;28;20336;-66
2022/11/12 03:04:13;;;;;;;0.40;0.40;;;16.30;97.80;;;;;;5031676;28;20240;-67
2022/11/12 03:07:01;;;;;;;0.40;0.40;;;16.30;97.70;;;;;;5032298;28;20280;-66
2022/11/12 03:09:49;;;;;;;0.40;0.40;;;16.30;97.40;;;;;;5031535;28;20600;-66
2022/11/12 03:12:38;;;;;;;0.70;0.70;;;16.40;97.70;;;;;;5032399;28;20194;-66
2022/11/12 03:15:28;;;;;;;0.40;0.40;;;16.30;97.50;;;;;;5033599;28;20276;-66
2022/11/12 03:18:16;;;;;;;0.40;0.40;;;16.40;97.60;;;;;;5034991;28;20230;-66
2022/11/12 03:21:04;;;;;;;0.40;0.40;;;16.30;97.80;;;;;;5034573;28;20841;-66
2022/11/12 03:23:52;;;;;;;0.40;0.40;;;16.30;97.50;;;;;;5034935;28;20295;-66
2022/11/12 03:26:40;;;;;;;0.40;0.40;;;16.30;97.60;;;;;;5035524;28;20344;-66
2022/11/12 03:29:30;;;;;;;0.40;0.40;;;16.40;97.40;;;;;;5034463;28;20281;-66
2022/11/12 03:32:18;;;;;;;0.77;0.77;;;16.30;97.50;;;;;;5034080;28;20277;-65
2022/11/12 03:35:07;;;;;;;0.40;0.40;;;16.30;97.40;;;;;;5033839;28;20269;-66
2022/11/12 03:37:55;;;;;;;0.40;0.40;;;16.30;97.60;;;;;;5033946;28;20194;-66
2022/11/12 03:40:43;;;;;;;0.40;0.40;;;16.30;97.40;;;;;;5034262;28;20206;-66
2022/11/12 03:43:31;;;;;;;0.40;0.40;;;16.30;97.40;;;;;;5034244;28;20233;-66
2022/11/12 03:46:20;;;;;;;0.40;0.40;;;16.30;97.50;;;;;;5033943;28;20249;-66
2022/11/12 03:49:08;;;;;;;0.40;0.40;;;16.30;97.50;;;;;;5034408;28;20686;-66
2022/11/12 03:51:56;;;;;;;0.40;0.40;;;16.30;97.70;;;;;;5034416;28;20198;-65
2022/11/12 03:54:44;;;;;;;0.40;0.40;;;16.30;98.00;;;;;;5034125;28;20218;-65
2022/11/12 03:57:33;;;;;;;0.40;0.40;;;16.20;97.50;;;;;;5057888;28;20286;-65
2022/11/12 04:00:23;;;;;;;0.40;0.40;;;16.30;97.50;;;;;;5073297;28;20196;-66
2022/11/12 04:03:13;;;;;;;0.40;0.40;;;16.20;97.30;;;;;;5073886;28;20688;-66
2022/11/12 04:09:06;;;;;;;0.40;0.40;;;16.20;97.30;;;;;;5073658;28;20677;-66
2022/11/12 04:13:26;;;;;;;0.40;0.40;;;16.20;97.10;;;;;;5073951;28;20603;-66
2022/11/12 04:15:03;;;;;;;0.40;0.40;;;16.20;97.20;;;;;;5073631;28;20294;-66
2022/11/12 04:27:19;;;;;;;0.40;0.40;;;16.20;97.30;;;;;;5071775;28;20314;-66
2022/11/12 04:30:17;;;;;;;0.40;0.40;;;16.20;97.20;;;;;;5073055;28;20279;-66
2022/11/12 04:33:05;;;;;;;0.40;0.40;;;16.20;97.00;;;;;;5074131;28;20280;-66
2022/11/12 04:35:53;;;;;;;0.40;0.40;;;16.20;96.90;;;;;;5074448;28;20307;-64
2022/11/12 04:38:43;;;;;;;0.40;0.40;;;16.20;97.00;;;;;;5073613;28;20276;-64
2022/11/12 04:47:43;;;;;;;0.40;0.40;;;16.20;97.60;;;;;;5073011;28;20232;-66
2022/11/12 04:50:31;;;;;;;0.50;0.50;;;16.10;97.00;;;;;;5072647;28;20339;-65
2022/11/12 04:53:19;;;;;;;0.40;0.40;;;16.10;97.00;;;;;;5073138;28;20197;-65
2022/11/12 04:56:08;;;;;;;0.40;0.40;;;16.10;96.90;;;;;;5072747;28;20415;-65
2022/11/12 04:58:56;;;;;;;0.40;0.40;;;16.20;97.00;;;;;;5074065;28;20280;-65
2022/11/12 05:01:44;;;;;;;0.60;0.60;;;16.10;96.90;;;;;;5073033;28;20227;-65
2022/11/12 05:04:32;;;;;;;0.40;0.40;;;16.10;97.20;;;;;;5073122;28;20221;-66
2022/11/12 05:07:20;;;;;;;0.40;0.40;;;16.10;97.00;;;;;;5073803;28;20512;-66
2022/11/12 05:10:09;;;;;;;3.03;2.75;;;16.10;97.00;;;;;;5072547;28;20207;-67
2022/11/12 05:12:59;;;;;;;0.40;0.40;;;16.10;97.00;;;;;;5073124;28;20201;-65
2022/11/12 05:15:47;;;;;;;0.40;0.40;;;16.10;97.00;;;;;;5072493;28;20362;-65
2022/11/12 05:18:35;;;;;;;0.40;0.40;;;16.10;96.90;;;;;;5073416;28;20490;-65
2022/11/12 05:24:30;;;;;;;0.40;0.40;;;16.10;97.00;;;;;;5072514;28;20238;-65
2022/11/12 05:27:29;;;;;;;0.40;0.40;;;16.00;97.00;;;;;;5073103;28;20577;-65
2022/11/12 05:30:18;;;;;;;0.75;0.75;;;16.10;97.10;;;;;;5071822;28;20247;-65
2022/11/12 05:33:06;;;;;;;0.40;0.40;;;16.00;96.90;;;;;;5073066;28;20276;-65
2022/11/12 05:35:55;;;;;;;0.40;0.40;;;16.20;97.00;;;;;;5073221;28;20256;-65
2022/11/12 05:38:43;;;;;;;0.40;0.40;;;16.10;96.60;;;;;;5071603;28;20275;-67
2022/11/12 05:41:31;;;;;;;0.40;0.40;;;16.00;96.80;;;;;;5073400;28;20309;-66
2022/11/12 05:44:39;;;;;;;0.40;0.40;;;16.00;96.90;;;;;;5074544;28;20219;-67
2022/11/12 05:47:29;;;;;;;0.40;0.40;;;16.00;96.50;;;;;;5076195;28;20250;-65
2022/11/12 05:50:17;;;;;;;0.40;0.40;;;16.00;97.00;;;;;;5072993;28;20742;-65
2022/11/12 05:53:05;;;;;;;0.50;0.50;;;16.10;96.90;;;;;;5075200;28;20200;-64
2022/11/12 05:55:53;;;;;;;0.40;0.40;;;16.00;96.90;;;;;;5073439;28;20737;-64
2022/11/12 05:58:41;;;;;;;0.40;0.40;;;16.00;96.70;;;;;;5034872;28;20233;-65
2022/11/12 06:01:29;;;;;;;0.40;0.40;;;16.00;96.70;;;;;;5034554;28;20208;-65
2022/11/12 06:04:19;;;;;;;1.75;1.65;;;16.00;96.50;;;;;;5034680;28;20633;-65
2022/11/12 06:07:07;;;;;;;0.60;0.60;;;15.90;96.60;;;;;;5044255;28;20198;-66
2022/11/12 06:09:55;;;;;;;0.40;0.40;;;16.00;96.80;;;;;;5041993;28;20678;-66
2022/11/12 06:12:43;;;;;;;0.40;0.40;;;16.00;96.60;;;;;;5044447;28;20257;-66
2022/11/12 06:15:31;;;;;;;0.40;0.40;;;16.00;96.50;;;;;;5042204;28;20245;-67
2022/11/12 06:18:26;;;;;;;0.40;0.40;;;16.00;96.70;;;;;;5042198;28;20210;-65
2022/11/12 06:21:26;;;;;;;0.40;0.40;;;15.90;96.50;;;;;;5043653;28;20202;-65
2022/11/12 06:24:14;;;;;;;0.40;0.40;;;15.90;96.60;;;;;;5042768;28;20206;-66
2022/11/12 06:27:02;;;;;;;0.40;0.40;;;15.90;96.80;;;;;;5042367;28;20202;-65
2022/11/12 06:29:50;;;;;;;0.40;0.40;;;16.00;96.70;;;;;;5042282;28;20266;-65
2022/11/12 06:32:38;;;;;;;0.55;0.55;;;16.00;96.80;;;;;;5042506;28;20742;-65
2022/11/12 06:35:26;;;;;;;0.40;0.40;;;16.00;96.60;;;;;;5043759;28;20254;-65
2022/11/12 06:38:16;;;;;;;0.40;0.40;;;15.90;96.50;;;;;;5033870;28;20280;-65
2022/11/12 06:41:04;;;;;;;0.40;0.40;;;15.90;96.50;;;;;;5032076;28;20198;-66
2022/11/12 06:43:52;;;;;;;0.40;0.40;;;16.00;96.60;;;;;;5032854;28;20659;-65
2022/11/12 06:46:40;;;;;;;0.40;0.40;;;15.90;96.40;;;;;;5033005;28;20758;-64
2022/11/12 06:49:28;;;;;;;0.40;0.40;;;15.90;96.50;;;;;;5032552;28;20282;-65
2022/11/12 06:52:16;;;;;;;0.80;0.80;;;15.90;96.40;;;;;;5036926;28;20233;-65
2022/11/12 06:55:07;;;;;;;0.40;0.40;;;15.90;96.60;;;;;;5036906;28;20356;-65
2022/11/12 06:57:55;;;;;;;0.40;0.40;;;15.90;96.50;;;;;;5066083;28;20281;-65
2022/11/12 07:00:43;;;;;;;0.40;0.40;;;15.90;96.50;;;;;;5074922;28;20196;-64
2022/11/12 07:03:31;;;;;;;0.40;0.40;;;15.90;96.80;;;;;;5055184;28;20221;-65
2022/11/12 07:06:20;;;;;;;0.40;0.40;;;15.90;96.50;;;;;;5056462;28;20221;-65
2022/11/12 07:09:08;;;;;;;0.45;0.45;;;15.90;96.60;;;;;;5056532;28;20288;-66
2022/11/12 07:11:58;;;;;;;1.92;1.75;;;15.90;96.40;;;;;;5055952;28;20197;-65
2022/11/12 07:14:46;;;;;;;0.40;0.40;;;15.90;96.60;;;;;;5055983;28;20636;-65
2022/11/12 07:17:34;;;;;;;0.40;0.40;;;15.90;96.50;;;;;;5056063;28;20205;-65
2022/11/12 07:20:22;;;;;;;0.40;0.40;;;15.90;96.60;;;;;;5056054;28;20258;-65
2022/11/12 07:23:10;;;;;;;0.40;0.40;;;16.00;96.70;;;;;;5055075;28;20303;-65
2022/11/12 07:26:00;;;;;;;0.40;0.40;;;16.00;96.60;;;;;;5055365;28;20217;-65
2022/11/12 07:28:51;;;;;;;0.40;0.40;;;15.90;96.60;;;;;;5055240;28;20233;-64
2022/11/12 07:31:39;;;;;;;0.40;0.40;;;15.90;96.70;;;;;;5054875;28;20334;-65
2022/11/12 07:34:27;;;;;;;0.60;0.60;;;15.90;96.80;;;;;;5054717;28;20757;-65
2022/11/12 07:37:15;;;;;;;0.47;0.47;;;15.90;96.60;;;;;;5054598;28;20201;-65
2022/11/12 07:40:04;;;;;;;0.40;0.40;;;15.90;96.70;;;;;;5054726;28;20296;-65
2022/11/12 07:42:52;;;;;;;0.40;0.40;;;16.00;96.80;;;;;;5054815;28;20811;-65
2022/11/12 07:45:41;;;;;;;0.40;0.40;;;16.00;96.80;;;;;;5055205;28;20213;-65
2022/11/12 07:48:30;;;;;;;0.40;0.40;;;16.00;96.60;;;;;;5054860;28;20265;-66
2022/11/12 07:51:20;;;;;;;0.40;0.40;;;16.00;96.60;;;;;;5054625;28;20284;-64
2022/11/12 07:54:08;;;;;;;0.40;0.40;;;16.00;96.60;;;;;;5054593;28;20276;-66
2022/11/12 07:56:56;;;;;;;0.40;0.40;;;16.00;96.60;;;;;;5062097;28;20201;-64
2022/11/12 07:59:44;;;;;;;0.40;0.40;;;15.90;96.60;;;;;;5073792;28;20237;-65
2022/11/12 08:02:34;;;;;;;0.40;0.40;;;16.00;96.60;;;;;;5074245;28;20673;-65
2022/11/12 08:05:22;;;;;;;0.40;0.40;;;16.00;96.80;;;;;;5075340;28;20282;-65
2022/11/12 08:08:10;;;;;;;0.40;0.40;;;16.00;96.80;;;;;;5074610;28;20285;-64
2022/11/12 08:10:59;;;;;;;0.40;0.40;;;16.00;96.50;;;;;;5074231;28;20197;-65
2022/11/12 08:13:47;;;;;;;0.40;0.40;;;16.00;96.90;;;;;;5075399;28;20280;-65
2022/11/12 08:16:35;;;;;;;0.40;0.40;;;16.00;96.60;;;;;;5074686;28;20262;-65
2022/11/12 08:19:25;;;;;;;0.40;0.40;;;16.00;96.80;;;;;;5073423;28;20209;-65
2022/11/12 08:22:14;;;;;;;0.40;0.40;;;16.00;96.60;;;;;;5073789;28;20282;-65
2022/11/12 08:25:02;;;;;;;0.40;0.40;;;16.00;96.70;;;;;;5074435;28;20299;-65
2022/11/12 08:27:50;;;;;;;0.40;0.40;;;16.00;96.70;;;;;;5074655;28;20205;-64
2022/11/12 08:30:38;;;;;;;0.45;0.45;;;16.00;96.70;;;;;;5074596;28;20283;-64
2022/11/12 08:33:26;;;;;;;0.40;0.40;;;16.00;96.90;;;;;;5074096;28;20254;-65
2022/11/12 08:36:17;;;;;;;0.40;0.40;;;16.00;97.00;;;;;;5073416;28;20306;-65
2022/11/12 08:39:05;;;;;;;0.40;0.40;;;16.00;96.70;;;;;;5073327;28;20232;-65
2022/11/12 08:41:53;;;;;;;0.50;0.50;;;16.00;96.80;;;;;;5073686;28;20201;-64
2022/11/12 08:44:41;;;;;;;0.40;0.40;;;16.10;96.80;;;;;;5073743;28;20235;-65
2022/11/12 08:47:29;;;;;;;0.40;0.40;;;16.10;96.80;;;;;;5073283;28;20276;-65
2022/11/12 08:50:17;;;;;;;0.40;0.40;;;16.10;97.00;;;;;;5073642;28;20673;-65
2022/11/12 08:53:09;;;;;;;2.25;2.15;;;16.10;96.80;;;;;;5073694;28;20213;-66
2022/11/12 08:55:58;;;;;;;0.40;0.40;;;16.10;96.80;;;;;;5074206;28;20362;-65
2022/11/12 08:58:46;;;;;;;0.40;0.40;;;16.10;96.70;;;;;;5046565;28;20236;-69
2022/11/12 09:01:34;;;;;;;0.40;0.40;;;16.10;96.70;;;;;;5055640;28;20236;-66
2022/11/12 09:04:23;;;;;;;0.40;0.40;;;16.10;96.90;;;;;;5055289;28;20265;-68
2022/11/12 09:07:11;;;;;;;0.40;0.40;;;16.10;96.70;;;;;;5055420;28;20213;-66
2022/11/12 09:10:20;;;;;;;0.40;0.40;;;16.10;96.80;;;;;;5054028;28;20230;-66
2022/11/12 09:13:08;;;;;;;0.40;0.40;;;16.20;96.60;;;;;;5036336;28;20198;-65
2022/11/12 09:16:01;;;;;;;0.40;0.40;;;16.10;96.80;;;;;;5033938;28;20214;-64
2022/11/12 09:18:49;;;;;;;0.40;0.40;;;16.30;96.80;;;;;;5033430;28;20324;-65
2022/11/12 09:21:38;;;;;;;0.40;0.40;;;16.20;96.90;;;;;;5032284;28;20613;-65
2022/11/12 09:24:26;;;;;;;0.40;0.40;;;16.20;96.80;;;;;;5032638;28;20304;-66
2022/11/12 09:27:15;;;;;;;0.40;0.40;;;16.20;96.70;;;;;;5033124;28;20280;-66
2022/11/12 09:30:05;;;;;;;3.17;1.95;;;16.30;96.90;;;;;;5032818;28;20291;-65
2022/11/12 09:32:57;;;;;;;0.40;0.40;;;16.30;96.70;;;;;;5032888;28;20674;-64
2022/11/12 09:35:46;;;;;;;0.40;0.40;;;16.40;96.80;;;;;;5032991;28;20226;-64
2022/11/12 09:38:34;;;;;;;0.50;0.50;;;16.30;96.90;;;;;;5032905;28;20324;-65
2022/11/12 09:41:28;;;;;;;0.40;0.40;;;16.30;97.00;;;;;;5033387;28;20501;-65
2022/11/12 09:44:20;;;;;;;0.40;0.40;;;16.40;96.90;;;;;;5032778;28;20218;-65
2022/11/12 09:47:15;;;;;;;0.40;0.40;;;16.40;97.00;;;;;;5031934;28;20213;-64
2022/11/12 09:50:16;;;;;;;0.40;0.40;;;16.40;97.00;;;;;;5032355;28;20255;-66
2022/11/12 09:53:11;;;;;;;0.40;0.40;;;16.40;97.10;;;;;;5032424;28;20240;-65
2022/11/12 09:56:01;;;;;;;1.20;1.20;;;16.40;96.90;;;;;;5032172;28;20296;-65
2022/11/12 09:58:50;;;;;;;0.40;0.40;;;16.40;97.00;;;;;;5034030;28;20257;-65
2022/11/12 10:01:48;;;;;;;0.40;0.40;;;16.50;97.00;;;;;;5032805;28;20238;-65
2022/11/12 10:04:58;;;;;;;0.40;0.40;;;16.50;96.90;;;;;;5033304;28;20229;-65
2022/11/12 10:07:59;;;;;;;0.40;0.40;;;16.50;97.10;;;;;;5034774;28;20257;-64
2022/11/12 10:10:49;;;;;;;0.40;0.40;;;16.50;97.10;;;;;;5034553;28;20282;-64
2022/11/12 10:13:47;;;;;;;0.40;0.40;;;16.50;97.10;;;;;;5033504;28;20201;-64
2022/11/12 10:16:52;;;;;;;0.40;0.40;;;16.50;97.10;;;;;;5033393;28;20285;-65
2022/11/12 10:19:58;;;;;;;0.70;0.70;;;16.60;97.10;;;;;;5032437;28;20231;-65
2022/11/12 10:23:05;;;;;;;0.40;0.40;;;16.50;97.10;;;;;;5032138;28;20687;-65
2022/11/12 10:25:57;;;;;;;0.40;0.40;;;16.60;97.00;;;;;;5032645;28;20233;-65
2022/11/12 10:28:48;;;;;;;0.40;0.40;;;16.60;97.10;;;;;;5032352;28;20285;-65
2022/11/12 10:31:36;;;;;;;0.40;0.40;;;16.60;97.10;;;;;;5031471;28;20410;-67
2022/11/12 10:34:26;;;;;;;0.40;0.40;;;16.70;96.90;;;;;;5058897;22;20280;-64
2022/11/12 10:37:18;;;;;;;1.30;1.30;;;16.60;97.10;;;;;;5051228;28;20253;-63
2022/11/12 10:40:31;;;;;;;0.43;0.43;;;16.70;97.10;;;;;;5052944;28;20247;-64
2022/11/12 10:43:24;;;;;;;1.25;1.25;;;16.60;97.10;;;;;;5053903;28;20288;-64
2022/11/12 10:46:20;;;;;;;0.40;0.40;;;16.70;97.20;;;;;;5053621;28;20225;-64
2022/11/12 10:49:23;;;;;;;24.23;19.90;;;16.70;97.10;;;;;;5052294;28;20251;-64
2022/11/12 10:52:23;;;;;;;0.40;0.40;;;16.80;97.20;;;;;;5051854;28;20201;-66
2022/11/12 10:55:17;;;;;;;0.40;0.40;;;16.70;97.10;;;;;;5051580;28;20796;-66
2022/11/12 10:58:18;;;;;;;0.40;0.40;;;16.70;97.10;;;;;;5068585;28;20282;-66
2022/11/12 11:01:14;;;;;;;0.40;0.40;;;16.70;97.10;;;;;;5074103;28;20223;-66
2022/11/12 11:04:02;;;;;;;0.40;0.40;;;16.70;97.10;;;;;;5072659;28;20313;-66
2022/11/12 11:06:58;;;;;;;0.40;0.40;;;16.70;97.10;;;;;;5078555;28;20201;-66
2022/11/12 11:09:54;;;;;;;0.40;0.40;;;16.70;97.10;;;;;;5074840;28;20251;-66
2022/11/12 11:12:42;;;;;;;0.40;0.40;;;16.80;97.10;;;;;;5084724;28;20200;-66
2022/11/12 11:15:30;;;;;;;0.40;0.40;;;16.80;97.10;;;;;;5077822;28;20262;-66
2022/11/12 11:18:18;;;;;;;0.40;0.40;;;16.90;97.20;;;;;;5072180;28;20232;-66
2022/11/12 11:21:21;;;;;;;0.40;0.40;;;16.80;97.10;;;;;;5070560;28;20201;-66
2022/11/12 11:24:26;;;;;;;0.75;0.75;;;16.80;97.10;;;;;;5072731;28;20211;-66
2022/11/12 11:27:35;;;;;;;0.40;0.40;;;16.80;97.10;;;;;;5071855;28;20330;-65
2022/11/12 11:30:23;;;;;;;0.40;0.40;;;16.80;97.10;;;;;;5071262;28;20681;-65
2022/11/12 11:33:31;;;;;;;0.50;0.50;;;16.80;97.10;;;;;;5070768;28;20624;-66
2022/11/12 11:36:27;;;;;;;0.40;0.40;;;16.80;97.10;;;;;;5072531;28;20310;-66
2022/11/12 11:39:24;;;;;;;0.98;0.98;;;16.80;97.10;;;;;;5075365;28;20286;-66
2022/11/12 11:42:29;;;;;;;0.40;0.40;;;16.80;97.10;;;;;;5074383;28;20309;-65
2022/11/12 11:45:23;;;;;;;0.40;0.40;;;16.90;97.20;;;;;;5075540;28;20270;-66
2022/11/12 11:48:21;;;;;;;0.40;0.40;;;16.80;97.10;;;;;;5074816;28;20708;-66
2022/11/12 11:51:26;;;;;;;0.40;0.40;;;16.90;97.20;;;;;;5074304;28;20326;-66
2022/11/12 11:54:44;;;;;;;0.40;0.40;;;16.80;97.10;;;;;;5074627;28;20696;-65
2022/11/12 11:57:42;;;;;;;0.40;0.40;;;16.90;97.20;;;;;;5062547;28;20205;-66
2022/11/12 12:00:41;;;;;;;0.40;0.40;;;16.90;97.20;;;;;;5054174;28;20769;-66
2022/11/12 12:03:37;;;;;;;0.40;0.40;;;16.90;97.20;;;;;;5055639;28;20205;-66
2022/11/12 12:06:27;;;;;;;0.40;0.40;;;16.90;97.20;;;;;;5055409;28;20216;-66
2022/11/12 12:09:28;;;;;;;0.40;0.40;;;17.50;97.40;;;;;;5055366;28;20267;-66
2022/11/12 12:12:30;;;;;;;0.40;0.40;;;16.90;97.20;;;;;;5054792;28;20682;-66
2022/11/12 12:15:36;;;;;;;0.40;0.40;;;16.90;97.20;;;;;;5055261;28;20291;-64
2022/11/12 12:18:34;;;;;;;0.40;0.40;;;16.90;97.20;;;;;;5055321;28;20351;-65
2022/11/12 12:21:24;;;;;;;0.40;0.40;;;16.90;97.30;;;;;;5055745;28;20247;-66
2022/11/12 12:24:19;;;;;;;0.40;0.40;;;16.90;97.30;;;;;;5062748;28;20280;-65
2022/11/12 12:27:12;;;;;;;0.40;0.40;;;16.90;97.10;;;;;;5058852;28;20273;-65
2022/11/12 12:30:04;;;;;;;0.40;0.40;;;16.90;97.30;;;;;;5056189;28;20270;-65
2022/11/12 12:32:59;;;;;;;0.40;0.40;;;17.00;97.40;;;;;;5055245;28;20240;-65
2022/11/12 12:35:54;;;;;;;0.40;0.40;;;16.90;97.30;;;;;;5055849;28;20308;-65
2022/11/12 12:38:48;;;;;;;0.40;0.40;;;16.90;97.30;;;;;;5055509;28;20344;-65
2022/11/12 12:41:44;;;;;;;4.55;4.22;;;16.90;97.30;;;;;;5056268;28;20228;-65
2022/11/12 12:45:00;;;;;;;0.40;0.40;;;16.90;97.20;;;;;;5056143;28;20233;-65
2022/11/12 12:47:50;;;;;;;0.40;0.40;;;16.90;97.40;;;;;;5054148;28;20201;-65
2022/11/12 12:50:42;;;;;;;0.40;0.40;;;17.00;97.40;;;;;;5054129;28;20683;-65
2022/11/12 12:53:34;;;;;;;0.40;0.40;;;16.90;97.40;;;;;;5054784;28;20281;-65
2022/11/12 12:56:46;;;;;;;0.40;0.40;;;16.90;97.40;;;;;;5055722;28;20217;-65
2022/11/12 12:59:34;;;;;;;0.40;0.40;;;17.00;97.50;;;;;;5075102;28;20200;-65
2022/11/12 13:02:24;;;;;;;0.40;0.40;;;17.00;97.50;;;;;;5074252;28;20201;-64
2022/11/12 13:05:28;;;;;;;0.40;0.40;;;17.00;97.50;;;;;;5074765;28;20754;-64
2022/11/12 13:08:25;;;;;;;0.40;0.40;;;17.00;97.50;;;;;;5074524;28;20589;-65
2022/11/12 13:15:10;;;;;;;0.40;0.40;;;17.00;97.50;;;;;;5073670;28;20294;-65
2022/11/12 13:17:58;;;;;;;11.07;4.97;;;17.00;97.90;;;;;;5074336;28;20279;-65
2022/11/12 13:21:08;;;;;;;0.40;0.40;;;17.00;97.60;;;;;;5074934;28;20820;-65
2022/11/12 13:24:06;;;;;;;0.40;0.40;;;17.00;97.60;;;;;;5073652;28;20330;-65
2022/11/12 13:26:57;;;;;;;0.40;0.40;;;17.00;97.60;;;;;;5073958;28;20217;-65
2022/11/12 13:29:47;;;;;;;0.40;0.40;;;17.00;97.60;;;;;;5074228;28;20284;-65
2022/11/12 13:32:37;;;;;;;0.40;0.40;;;17.00;97.60;;;;;;5074028;28;20275;-65
2022/11/12 13:35:28;;;;;;;0.40;0.40;;;17.00;97.60;;;;;;5074261;28;20256;-65
2022/11/12 13:38:18;;;;;;;0.40;0.40;;;17.10;97.70;;;;;;5073044;28;20290;-65
2022/11/12 13:41:17;;;;;;;0.40;0.40;;;17.00;97.60;;;;;;5072135;28;20236;-65
2022/11/12 13:44:07;;;;;;;0.40;0.40;;;17.00;97.70;;;;;;5072416;28;20318;-64
2022/11/12 13:46:56;;;;;;;0.40;0.40;;;17.10;97.70;;;;;;5072360;28;20354;-65
2022/11/12 13:49:45;;;;;;;0.40;0.40;;;17.10;97.70;;;;;;5072852;28;20239;-65
2022/11/12 13:52:35;;;;;;;0.40;0.40;;;17.10;97.80;;;;;;5072600;28;20208;-65
2022/11/12 13:55:23;;;;;;;0.40;0.40;;;17.10;97.70;;;;;;5071550;28;20238;-65
2022/11/12 13:58:20;;;;;;;0.40;0.40;;;17.10;97.70;;;;;;5054979;28;20270;-65
2022/11/12 14:01:10;;;;;;;0.40;0.40;;;17.10;97.70;;;;;;5052660;28;20287;-65
2022/11/12 14:04:00;;;;;;;0.40;0.40;;;17.10;97.70;;;;;;5052836;28;20209;-65
2022/11/12 14:06:51;;;;;;;0.40;0.40;;;17.10;97.70;;;;;;5051927;28;20475;-65
2022/11/12 14:09:54;;;;;;;0.40;0.40;;;17.10;97.80;;;;;;5052196;28;20198;-65
2022/11/12 14:13:12;;;;;;;0.40;0.40;;;17.10;97.80;;;;;;5052760;28;20276;-65
2022/11/12 14:16:19;;;;;;;0.85;0.85;;;17.10;97.80;;;;;;5052197;28;20300;-65
2022/11/12 14:19:25;;;;;;;0.40;0.40;;;17.10;97.80;;;;;;5052099;28;20237;-66
2022/11/12 14:22:16;;;;;;;0.40;0.40;;;17.10;97.80;;;;;;5052761;28;20228;-65
2022/11/12 14:25:12;;;;;;;0.40;0.40;;;17.10;97.80;;;;;;5052098;28;20217;-65
2022/11/12 14:28:00;;;;;;;0.40;0.40;;;17.10;97.90;;;;;;5052383;28;20213;-65
2022/11/12 14:30:48;;;;;;;0.40;0.40;;;17.00;97.80;;;;;;5052782;28;20282;-65
2022/11/12 14:33:38;;;;;;;0.40;0.40;;;17.10;97.90;;;;;;5053294;28;20197;-65
2022/11/12 14:36:26;;;;;;;0.40;0.40;;;17.00;97.80;;;;;;5051061;28;20831;-65
2022/11/12 14:39:15;;;;;;;0.40;0.40;;;17.00;97.90;;;;;;5053328;28;20606;-65
2022/11/12 14:42:03;;;;;;;0.40;0.40;;;17.10;98.00;;;;;;5053722;28;20740;-65
2022/11/12 14:44:51;;;;;;;0.40;0.40;;;17.00;97.90;;;;;;5053624;28;20304;-65
2022/11/12 14:47:39;;;;;;;0.40;0.40;;;17.10;98.00;;;;;;5053874;28;20249;-65
2022/11/12 14:50:31;;;;;;;0.40;0.40;;;17.10;98.00;;;;;;5053183;28;20197;-65
2022/11/12 14:53:29;;;;;;;0.40;0.40;;;17.10;98.00;;;;;;5054786;28;20623;-65
2022/11/12 14:56:27;;;;;;;0.40;0.40;;;17.10;98.10;;;;;;5053030;28;20213;-65
2022/11/12 14:59:22;;;;;;;0.40;0.40;;;17.00;98.00;;;;;;5072488;28;20204;-65
2022/11/12 15:02:14;;;;;;;0.40;0.40;;;17.00;98.00;;;;;;5071630;28;20196;-65
2022/11/12 15:05:22;;;;;;;0.40;0.40;;;17.00;98.00;;;;;;5072632;28;20224;-65
2022/11/12 15:08:12;;;;;;;0.40;0.40;;;17.00;98.10;;;;;;5071854;28;20338;-65
2022/11/12 15:11:20;;;;;;;0.40;0.40;;;17.00;98.10;;;;;;5073116;28;20696;-65
2022/11/12 15:14:20;;;;;;;0.40;0.40;;;17.00;98.10;;;;;;5075643;28;20702;-65
2022/11/12 15:17:27;;;;;;;0.40;0.40;;;17.00;97.90;;;;;;5076903;28;20204;-65
2022/11/12 15:20:17;;;;;;;0.40;0.40;;;17.00;98.20;;;;;;5075141;28;20200;-65